createdAt,value
2023-04-12T00:00:55.658Z,5.03
2023-04-12T00:03:27.057Z,4.28
2023-04-12T00:05:54.676Z,4.53
2023-04-12T00:08:32.886Z,5.63
2023-04-12T00:11:00.735Z,4.47
2023-04-12T00:13:27.856Z,3.50
2023-04-12T00:15:54.910Z,10.40
2023-04-12T00:18:25.044Z,4.70
2023-04-12T00:20:52.877Z,5.90
2023-04-12T00:23:19.926Z,5.13
2023-04-12T00:25:46.983Z,4.43
2023-04-12T00:28:14.027Z,4.83
2023-04-12T00:30:41.511Z,5.83
2023-04-12T00:33:08.253Z,5.33
2023-04-12T00:35:35.266Z,8.30
2023-04-12T00:38:03.642Z,6.68
2023-04-12T00:40:30.232Z,5.93
2023-04-12T00:42:57.095Z,6.10
2023-04-12T00:45:23.661Z,7.17
2023-04-12T00:47:50.380Z,6.83
2023-04-12T00:50:16.997Z,6.10
2023-04-12T00:52:43.820Z,5.40
2023-04-12T00:55:10.531Z,3.90
2023-04-12T00:57:39.215Z,8.30
2023-04-12T01:00:08.414Z,3.80
2023-04-12T01:02:38.994Z,7.07
2023-04-12T01:05:07.365Z,8.03
2023-04-12T01:07:55.601Z,5.53
2023-04-12T01:10:49.481Z,6.37
2023-04-12T01:13:35.552Z,6.57
2023-04-12T01:16:28.146Z,6.83
2023-04-12T01:18:59.760Z,7.37
2023-04-12T01:21:45.116Z,4.40
2023-04-12T01:24:19.588Z,6.37
2023-04-12T01:26:48.308Z,4.23
2023-04-12T01:29:17.036Z,8.47
2023-04-12T01:32:02.992Z,7.80
2023-04-12T01:34:33.272Z,10.50
2023-04-12T01:37:02.480Z,6.33
2023-04-12T01:39:33.701Z,8.20
2023-04-12T01:42:00.916Z,5.80
2023-04-12T01:44:27.557Z,6.80
2023-04-12T01:46:54.442Z,6.03
2023-04-12T01:49:24.707Z,8.13
2023-04-12T01:51:55.081Z,6.43
2023-04-12T01:54:36.798Z,4.77
2023-04-12T01:57:05.711Z,5.20
2023-04-12T01:59:39.131Z,7.80
2023-04-12T02:02:07.035Z,3.47
2023-04-12T02:04:38.152Z,6.97
2023-04-12T02:07:05.392Z,5.60
2023-04-12T02:09:39.852Z,5.07
2023-04-12T02:12:07.688Z,7.17
2023-04-12T02:14:34.453Z,5.67
2023-04-12T02:17:02.432Z,6.90
2023-04-12T02:19:29.441Z,7.37
2023-04-12T02:21:56.104Z,7.80
2023-04-12T02:24:22.825Z,6.70
2023-04-12T02:26:52.466Z,6.73
2023-04-12T02:29:19.029Z,8.07
2023-04-12T02:31:46.392Z,9.02
2023-04-12T02:34:13.390Z,6.83
2023-04-12T02:36:40.049Z,6.27
2023-04-12T02:39:07.540Z,6.17
2023-04-12T02:41:34.126Z,7.23
2023-04-12T02:44:00.628Z,9.33
2023-04-12T02:46:27.339Z,4.07
2023-04-12T02:48:53.983Z,9.90
2023-04-12T02:51:20.646Z,9.17
2023-04-12T02:53:47.168Z,8.87
2023-04-12T02:56:13.760Z,6.30
2023-04-12T02:58:41.005Z,5.80
2023-04-12T03:01:07.956Z,7.00
2023-04-12T03:03:35.691Z,6.63
2023-04-12T03:06:03.309Z,10.77
2023-04-12T03:08:29.932Z,7.77
2023-04-12T03:10:57.269Z,5.80
2023-04-12T03:13:23.864Z,8.53
2023-04-12T03:15:59.454Z,6.57
2023-04-12T03:18:26.490Z,8.23
2023-04-12T03:20:53.138Z,7.97
2023-04-12T03:23:20.472Z,7.00
2023-04-12T03:25:47.271Z,4.97
2023-04-12T03:28:13.858Z,4.60
2023-04-12T03:30:40.782Z,10.27
2023-04-12T03:33:07.847Z,11.50
2023-04-12T03:35:34.549Z,10.03
2023-04-12T03:38:01.196Z,8.13
2023-04-12T03:40:27.744Z,8.57
2023-04-12T03:42:54.347Z,10.17
2023-04-12T03:45:21.031Z,8.50
2023-04-12T03:47:47.657Z,7.30
2023-04-12T03:50:14.249Z,6.40
2023-04-12T03:52:40.857Z,7.20
2023-04-12T03:55:08.265Z,9.63
2023-04-12T03:57:35.394Z,8.13
2023-04-12T04:00:02.522Z,9.00
2023-04-12T04:02:29.280Z,7.47
2023-04-12T04:04:56.216Z,6.30
2023-04-12T04:07:23.070Z,7.50
2023-04-12T04:09:50.196Z,6.87
2023-04-12T04:12:16.870Z,6.67
2023-04-12T04:14:43.911Z,11.00
2023-04-12T04:17:10.891Z,7.30
2023-04-12T04:19:37.493Z,8.52
2023-04-12T04:22:04.600Z,11.33
2023-04-12T04:24:31.235Z,10.50
2023-04-12T04:26:58.600Z,12.50
2023-04-12T04:29:25.654Z,9.47
2023-04-12T04:31:53.091Z,10.77
2023-04-12T04:34:19.640Z,8.03
2023-04-12T04:36:46.841Z,10.60
2023-04-12T04:39:13.385Z,6.53
2023-04-12T04:41:41.161Z,12.97
2023-04-12T04:44:10.989Z,8.83
2023-04-12T04:46:38.140Z,9.27
2023-04-12T04:49:05.767Z,8.13
2023-04-12T04:51:32.811Z,9.00
2023-04-12T04:54:00.129Z,9.30
2023-04-12T04:56:26.785Z,8.20
2023-04-12T04:58:55.427Z,11.23
2023-04-12T05:01:28.066Z,10.83
2023-04-12T05:03:55.645Z,11.50
2023-04-12T05:06:22.818Z,9.13
2023-04-12T05:08:49.378Z,9.53
2023-04-12T05:11:15.987Z,11.73
2023-04-12T05:13:42.557Z,8.33
2023-04-12T05:16:09.518Z,6.77
2023-04-12T05:18:36.212Z,10.37
2023-04-12T05:21:06.109Z,7.93
2023-04-12T05:23:37.468Z,10.93
2023-04-12T05:26:04.611Z,9.80
2023-04-12T05:28:31.327Z,7.33
2023-04-12T05:30:58.125Z,8.40
2023-04-12T05:33:24.690Z,9.73
2023-04-12T05:35:51.254Z,8.17
2023-04-12T05:38:17.859Z,7.57
2023-04-12T05:40:44.497Z,9.03
2023-04-12T05:43:14.344Z,10.47
2023-04-12T05:45:41.684Z,11.03
2023-04-12T05:48:08.611Z,12.10
2023-04-12T05:50:35.719Z,12.63
2023-04-12T05:53:02.660Z,11.17
2023-04-12T05:55:29.954Z,12.60
2023-04-12T05:57:58.616Z,8.33
2023-04-12T06:00:26.217Z,11.17
2023-04-12T06:02:53.304Z,7.70
2023-04-12T06:05:20.063Z,7.57
2023-04-12T06:07:49.560Z,6.97
2023-04-12T06:10:17.262Z,8.17
2023-04-12T06:12:44.270Z,10.25
2023-04-12T06:15:11.319Z,7.57
2023-04-12T06:17:38.279Z,7.87
2023-04-12T06:20:09.639Z,12.87
2023-04-12T06:22:37.271Z,5.57
2023-04-12T06:25:04.446Z,6.23
2023-04-12T06:27:31.494Z,9.63
2023-04-12T06:29:58.398Z,6.47
2023-04-12T06:32:25.383Z,8.93
2023-04-12T06:34:52.390Z,6.43
2023-04-12T06:37:19.044Z,7.83
2023-04-12T06:39:45.637Z,8.57
2023-04-12T06:42:14.524Z,8.43
2023-04-12T06:44:41.516Z,8.77
2023-04-12T06:47:08.376Z,7.63
2023-04-12T06:49:35.135Z,6.97
2023-04-12T06:52:01.711Z,9.67
2023-04-12T06:54:28.274Z,7.60
2023-04-12T06:56:54.877Z,6.37
2023-04-12T06:59:21.465Z,6.73
2023-04-12T07:01:48.054Z,7.30
2023-04-12T07:04:14.783Z,6.57
2023-04-12T07:06:42.530Z,6.37
2023-04-12T07:09:09.098Z,5.37
2023-04-12T07:11:35.718Z,7.67
2023-04-12T07:14:02.345Z,7.70
2023-04-12T07:16:31.262Z,7.47
2023-04-12T07:18:58.967Z,7.20
2023-04-12T07:21:27.433Z,5.07
2023-04-12T07:23:54.124Z,5.80
2023-04-12T07:26:21.558Z,6.10
2023-04-12T07:28:48.939Z,4.73
2023-04-12T07:31:16.849Z,4.53
2023-04-12T07:33:45.383Z,4.63
2023-04-12T07:36:14.266Z,4.83
2023-04-12T07:38:55.845Z,6.47
2023-04-12T07:41:32.007Z,5.40
2023-04-12T07:44:01.438Z,4.03
2023-04-12T07:46:28.741Z,4.17
2023-04-12T07:48:56.192Z,4.53
2023-04-12T07:51:23.315Z,4.33
2023-04-12T07:53:50.291Z,7.87
2023-04-12T07:56:17.057Z,5.73
2023-04-12T07:58:43.616Z,4.00
2023-04-12T08:01:13.092Z,4.93
2023-04-12T08:03:39.735Z,4.43
2023-04-12T08:06:07.774Z,5.10
2023-04-12T08:08:34.739Z,5.77
2023-04-12T08:11:02.887Z,4.37
2023-04-12T08:13:29.455Z,3.70
2023-04-12T08:15:56.020Z,4.43
2023-04-12T08:18:22.629Z,3.13
2023-04-12T08:20:49.435Z,3.30
2023-04-12T08:23:16.415Z,5.50
2023-04-12T08:25:43.037Z,5.17
2023-04-12T08:28:09.836Z,5.90
2023-04-12T08:30:36.610Z,5.67
2023-04-12T08:33:03.320Z,6.60
2023-04-12T08:35:30.232Z,4.20
2023-04-12T08:37:57.146Z,6.27
2023-04-12T08:40:24.398Z,4.50
2023-04-12T08:42:53.108Z,5.17
2023-04-12T08:45:23.690Z,3.43
2023-04-12T08:47:50.413Z,5.67
2023-04-12T08:50:17.370Z,6.57
2023-04-12T08:52:43.985Z,7.77
2023-04-12T08:55:12.734Z,5.37
2023-04-12T08:57:41.621Z,3.33
2023-04-12T09:00:09.933Z,6.87
2023-04-12T09:02:38.385Z,8.67
2023-04-12T09:05:06.631Z,5.47
2023-04-12T09:07:33.699Z,13.77
2023-04-12T09:10:00.401Z,5.27
2023-04-12T09:12:27.189Z,5.40
2023-04-12T09:15:15.323Z,3.30
2023-04-12T09:17:42.871Z,3.90
2023-04-12T09:20:12.543Z,7.80
2023-04-12T09:22:44.410Z,4.83
2023-04-12T09:25:13.261Z,4.87
2023-04-12T09:27:49.936Z,4.60
2023-04-12T09:30:17.993Z,5.80
2023-04-12T09:32:45.166Z,6.77
2023-04-12T09:35:11.861Z,6.33
2023-04-12T09:37:39.042Z,2.73
2023-04-12T09:40:07.800Z,6.17
2023-04-12T09:42:35.622Z,4.77
2023-04-12T09:45:24.308Z,5.17
2023-04-12T09:47:51.521Z,5.80
2023-04-12T09:50:23.585Z,4.07
2023-04-12T09:52:50.860Z,4.40
2023-04-12T09:55:18.129Z,5.10
2023-04-12T09:57:45.585Z,4.30
2023-04-12T10:00:17.527Z,4.70
2023-04-12T10:02:47.694Z,4.23
2023-04-12T10:05:18.229Z,2.80
2023-04-12T10:07:45.830Z,5.60
2023-04-12T10:10:14.951Z,2.80
2023-04-12T10:12:43.011Z,4.50
2023-04-12T10:15:17.634Z,3.33
2023-04-12T10:17:47.356Z,2.97
2023-04-12T10:20:15.753Z,2.70
2023-04-12T10:22:53.342Z,2.20
2023-04-12T10:25:25.461Z,3.07
2023-04-12T10:27:52.390Z,3.73
2023-04-12T10:30:19.089Z,3.95
2023-04-12T10:32:46.296Z,2.80
2023-04-12T10:35:12.997Z,4.50
2023-04-12T10:38:02.258Z,3.70
2023-04-12T10:40:31.303Z,4.57
2023-04-12T10:43:22.977Z,3.87
2023-04-12T10:45:52.449Z,2.33
2023-04-12T10:48:35.799Z,2.40
2023-04-12T10:51:28.533Z,6.10
2023-04-12T10:54:15.300Z,4.00
2023-04-12T10:56:42.815Z,3.77
2023-04-12T10:59:10.650Z,2.50
2023-04-12T11:01:39.302Z,3.90
2023-04-12T11:04:21.271Z,3.40
2023-04-12T11:06:52.366Z,2.87
2023-04-12T11:09:29.404Z,2.50
2023-04-12T11:12:10.965Z,2.40
2023-04-12T11:14:42.646Z,3.47
2023-04-12T11:17:13.191Z,2.20
2023-04-12T11:19:44.530Z,3.70
2023-04-12T11:22:16.099Z,2.77
2023-04-12T11:24:49.461Z,1.67
2023-04-12T11:27:20.087Z,1.90
2023-04-12T11:29:54.325Z,2.63
2023-04-12T11:32:26.284Z,2.60
2023-04-12T11:34:55.284Z,1.70
2023-04-12T11:37:22.978Z,1.87
2023-04-12T11:39:55.225Z,4.83
2023-04-12T11:42:27.121Z,1.53
2023-04-12T11:45:02.477Z,3.10
2023-04-12T11:47:35.437Z,1.90
2023-04-12T11:50:03.714Z,2.33
2023-04-12T11:52:35.056Z,2.30
2023-04-12T11:55:08.609Z,1.70
2023-04-12T11:57:40.950Z,2.80
2023-04-12T12:00:12.023Z,3.03
2023-04-12T12:02:52.347Z,3.33
2023-04-12T12:05:36.685Z,2.80
2023-04-12T12:08:07.864Z,3.33
2023-04-12T12:10:52.305Z,2.20
2023-04-12T12:13:29.882Z,3.00
2023-04-12T12:16:00.627Z,2.00
2023-04-12T12:18:31.052Z,2.42
2023-04-12T12:20:59.320Z,3.10
2023-04-12T12:23:33.038Z,3.67
2023-04-12T12:26:18.436Z,1.87
2023-04-12T12:28:52.808Z,2.13
2023-04-12T12:31:23.259Z,2.30
2023-04-12T12:34:05.784Z,3.53
2023-04-12T12:36:39.560Z,3.03
2023-04-12T12:39:22.153Z,2.53
2023-04-12T12:41:56.370Z,1.60
2023-04-12T12:44:23.950Z,2.03
2023-04-12T12:47:10.038Z,3.73
2023-04-12T12:49:51.896Z,1.40
2023-04-12T12:52:20.992Z,3.47
2023-04-12T12:54:50.049Z,1.20
2023-04-12T12:57:28.464Z,1.70
2023-04-12T13:00:06.840Z,3.57
2023-04-12T13:02:36.249Z,5.07
2023-04-12T13:05:04.716Z,2.33
2023-04-12T13:07:31.566Z,3.27
2023-04-12T13:09:58.499Z,5.70
2023-04-12T13:12:25.385Z,2.17
2023-04-12T13:14:57.947Z,1.60
2023-04-12T13:17:31.140Z,2.40
2023-04-12T13:19:58.813Z,1.40
2023-04-12T13:22:27.214Z,2.47
2023-04-12T13:24:55.082Z,2.87
2023-04-12T13:27:21.986Z,1.53
2023-04-12T13:29:48.572Z,1.70
2023-04-12T13:32:15.516Z,1.67
2023-04-12T13:34:42.121Z,5.20
2023-04-12T13:37:08.721Z,2.03
2023-04-12T13:39:36.223Z,2.57
2023-04-12T13:42:03.071Z,2.63
2023-04-12T13:44:29.620Z,4.07
2023-04-12T13:46:56.832Z,2.63
2023-04-12T13:49:23.422Z,2.77
2023-04-12T13:51:50.300Z,2.80
2023-04-12T13:54:17.412Z,3.23
2023-04-12T13:56:44.268Z,2.33
2023-04-12T13:59:12.185Z,3.17
2023-04-12T14:01:38.794Z,2.93
2023-04-12T14:04:05.954Z,2.43
2023-04-12T14:06:32.834Z,2.20
2023-04-12T14:08:59.826Z,6.00
2023-04-12T14:11:27.073Z,3.03
2023-04-12T14:13:54.443Z,1.70
2023-04-12T14:16:20.978Z,2.00
2023-04-12T14:18:47.876Z,1.83
2023-04-12T14:21:14.399Z,2.53
2023-04-12T14:23:41.551Z,2.40
2023-04-12T14:26:08.205Z,1.37
2023-04-12T14:28:35.714Z,2.80
2023-04-12T14:31:04.976Z,2.10
2023-04-12T14:33:33.143Z,1.30
2023-04-12T14:36:04.767Z,1.27
2023-04-12T14:38:36.064Z,1.90
2023-04-12T14:41:07.563Z,3.67
2023-04-12T14:43:34.408Z,2.50
2023-04-12T14:46:01.038Z,1.93
2023-04-12T14:48:27.716Z,2.07
2023-04-12T14:50:55.539Z,3.70
2023-04-12T14:53:23.027Z,2.07
2023-04-12T14:55:49.594Z,1.57
2023-04-12T14:58:16.379Z,1.80
2023-04-12T15:00:42.970Z,4.67
2023-04-12T15:03:10.012Z,3.53
2023-04-12T15:05:36.871Z,1.73
2023-04-12T15:08:04.463Z,1.50
2023-04-12T15:10:31.557Z,2.97
2023-04-12T15:12:58.153Z,2.40
2023-04-12T15:15:24.798Z,1.73
2023-04-12T15:17:51.753Z,2.10
2023-04-12T15:20:18.457Z,1.00
2023-04-12T15:22:45.143Z,3.40
2023-04-12T15:25:11.786Z,2.17
2023-04-12T15:27:38.920Z,0.57
2023-04-12T15:30:08.255Z,1.57
2023-04-12T15:32:38.601Z,2.23
2023-04-12T15:35:22.734Z,0.97
2023-04-12T15:37:54.790Z,1.20
2023-04-12T15:40:22.582Z,1.23
2023-04-12T15:42:49.263Z,1.40
2023-04-12T15:45:16.091Z,2.30
2023-04-12T15:47:42.879Z,1.20
2023-04-12T15:50:10.226Z,1.20
2023-04-12T15:52:37.019Z,1.20
2023-04-12T15:55:05.249Z,1.40
2023-04-12T15:57:32.307Z,1.10
2023-04-12T15:59:59.765Z,0.80
2023-04-12T16:02:26.785Z,0.80
2023-04-12T16:04:55.779Z,1.30
2023-04-12T16:07:22.848Z,1.00
2023-04-12T16:09:49.528Z,1.07
2023-04-12T16:12:16.170Z,0.80
2023-04-12T16:14:43.048Z,1.77
2023-04-12T16:17:09.888Z,1.30
2023-04-12T16:19:36.657Z,1.17
2023-04-12T16:22:03.614Z,1.20
2023-04-12T16:24:30.268Z,1.10
2023-04-12T16:26:57.389Z,1.70
2023-04-12T16:29:24.409Z,1.33
2023-04-12T16:31:52.055Z,1.90
2023-04-12T16:34:21.799Z,1.27
2023-04-12T16:36:48.933Z,0.97
2023-04-12T16:39:16.454Z,1.67
2023-04-12T16:41:46.736Z,0.90
2023-04-12T16:44:18.622Z,1.20
2023-04-12T16:46:47.731Z,0.90
2023-04-12T16:49:14.323Z,1.50
2023-04-12T16:51:41.084Z,1.10
2023-04-12T16:54:07.662Z,1.30
2023-04-12T16:56:34.294Z,1.17
2023-04-12T16:59:01.213Z,1.10
2023-04-12T17:01:28.051Z,1.10
2023-04-12T17:03:54.671Z,0.97
2023-04-12T17:06:21.582Z,0.70
2023-04-12T17:08:48.920Z,0.87
2023-04-12T17:11:15.506Z,1.00
2023-04-12T17:13:42.261Z,1.43
2023-04-12T17:16:10.048Z,2.10
2023-04-12T17:18:40.010Z,1.43
2023-04-12T17:21:07.145Z,2.53
2023-04-12T17:23:34.147Z,1.40
2023-04-12T17:26:01.313Z,1.20
2023-04-12T17:28:27.925Z,1.30
2023-04-12T17:30:57.303Z,1.53
2023-04-12T17:33:23.929Z,1.47
2023-04-12T17:35:50.563Z,1.20
2023-04-12T17:38:17.154Z,2.07
2023-04-12T17:40:43.695Z,3.20
2023-04-12T17:43:10.351Z,2.53
2023-04-12T17:45:36.974Z,2.57
2023-04-12T17:48:03.617Z,2.37
2023-04-12T17:50:30.185Z,1.50
2023-04-12T17:52:58.284Z,2.20
2023-04-12T17:55:25.862Z,2.17
2023-04-12T17:57:55.595Z,1.87
2023-04-12T18:00:23.917Z,1.57
2023-04-12T18:02:50.979Z,2.63
2023-04-12T18:05:19.061Z,1.90
2023-04-12T18:07:45.886Z,1.77
2023-04-12T18:10:15.389Z,1.90
2023-04-12T18:12:44.141Z,2.93
2023-04-12T18:15:11.414Z,1.93
2023-04-12T18:17:39.617Z,1.30
2023-04-12T18:20:11.219Z,2.00
2023-04-12T18:22:38.405Z,1.90
2023-04-12T18:25:06.461Z,2.20
2023-04-12T18:27:33.091Z,1.70
2023-04-12T18:30:01.255Z,2.63
2023-04-12T18:32:27.935Z,2.37
2023-04-12T18:34:54.548Z,2.10
2023-04-12T18:37:21.191Z,3.40
2023-04-12T18:39:47.748Z,3.20
2023-04-12T18:42:14.328Z,2.40
2023-04-12T18:44:42.060Z,1.63
2023-04-12T18:47:08.883Z,1.80
2023-04-12T18:49:35.474Z,1.73
2023-04-12T18:52:02.107Z,2.10
2023-04-12T18:54:28.962Z,1.97
2023-04-12T18:56:57.749Z,1.73
2023-04-12T18:59:25.728Z,1.90
2023-04-12T19:01:52.524Z,2.30
2023-04-12T19:04:19.159Z,1.67
2023-04-12T19:06:46.893Z,1.67
2023-04-12T19:09:13.625Z,2.77
2023-04-12T19:11:40.449Z,1.20
2023-04-12T19:14:09.968Z,1.93
2023-04-12T19:16:36.790Z,2.13
2023-04-12T19:19:03.620Z,2.33
2023-04-12T19:21:31.445Z,0.90
2023-04-12T19:23:58.260Z,1.33
2023-04-12T19:26:25.824Z,1.30
2023-04-12T19:28:55.317Z,1.90
2023-04-12T19:31:23.511Z,2.67
2023-04-12T19:33:50.143Z,1.70
2023-04-12T19:36:17.293Z,1.50
2023-04-12T19:38:47.315Z,2.30
2023-04-12T19:41:14.392Z,2.23
2023-04-12T19:43:41.391Z,2.50
2023-04-12T19:46:08.279Z,2.17
2023-04-12T19:48:34.920Z,2.77
2023-04-12T19:51:01.472Z,2.03
2023-04-12T19:53:28.109Z,4.33
2023-04-12T19:55:57.947Z,8.13
2023-04-12T19:58:24.987Z,2.67
2023-04-12T20:00:54.545Z,1.40
2023-04-12T20:03:21.683Z,2.10
2023-04-12T20:05:48.462Z,1.23
2023-04-12T20:08:15.788Z,1.60
2023-04-12T20:10:42.787Z,1.30
2023-04-12T20:13:14.882Z,1.33
2023-04-12T20:15:42.794Z,2.53
2023-04-12T20:18:11.545Z,2.37
2023-04-12T20:20:38.463Z,3.87
2023-04-12T20:23:05.216Z,1.10
2023-04-12T20:25:37.529Z,1.03
2023-04-12T20:28:04.534Z,1.40
2023-04-12T20:30:31.290Z,1.23
2023-04-12T20:32:58.864Z,2.07
2023-04-12T20:35:25.731Z,1.10
2023-04-12T20:37:52.769Z,2.47
2023-04-12T20:40:20.046Z,1.50
2023-04-12T20:42:46.874Z,1.23
2023-04-12T20:45:14.290Z,2.23
2023-04-12T20:47:41.401Z,2.33
2023-04-12T20:50:08.480Z,1.03
2023-04-12T20:52:35.474Z,0.40
2023-04-12T20:55:04.531Z,0.73
2023-04-12T20:57:31.668Z,0.60
2023-04-12T20:59:59.447Z,1.93
2023-04-12T21:02:26.690Z,0.60
2023-04-12T21:04:53.776Z,2.43
2023-04-12T21:07:21.380Z,0.50
2023-04-12T21:09:48.747Z,0.60
2023-04-12T21:12:17.480Z,0.57
2023-04-12T21:14:49.917Z,0.80
2023-04-12T21:17:16.902Z,0.80
2023-04-12T21:19:44.756Z,0.75
2023-04-12T21:22:11.782Z,0.70
2023-04-12T21:24:38.787Z,1.03
2023-04-12T21:27:07.362Z,1.53
2023-04-12T21:29:41.042Z,2.00
2023-04-12T21:32:08.852Z,0.80
2023-04-12T21:34:37.179Z,1.07
2023-04-12T21:37:04.335Z,0.70
2023-04-12T21:39:31.570Z,2.73
2023-04-12T21:41:58.556Z,1.03
2023-04-12T21:44:26.518Z,1.87
2023-04-12T21:46:53.500Z,0.90
2023-04-12T21:49:21.178Z,0.63
2023-04-12T21:51:49.029Z,0.90
2023-04-12T21:54:16.384Z,0.73
2023-04-12T21:56:43.417Z,0.77
2023-04-12T21:59:10.582Z,0.90
2023-04-12T22:01:37.950Z,1.23
2023-04-12T22:04:05.798Z,1.03
2023-04-12T22:06:32.859Z,0.87
2023-04-12T22:09:01.968Z,1.30
2023-04-12T22:11:30.355Z,1.57
2023-04-12T22:13:57.703Z,1.03
2023-04-12T22:16:24.838Z,1.60
2023-04-12T22:18:52.598Z,1.70
2023-04-12T22:21:19.624Z,1.23
2023-04-12T22:23:46.737Z,1.00
2023-04-12T22:26:13.855Z,1.63
2023-04-12T22:28:42.496Z,0.80
2023-04-12T22:31:14.218Z,1.00
2023-04-12T22:33:41.529Z,1.40
2023-04-12T22:36:09.409Z,1.00
2023-04-12T22:38:37.058Z,0.93
2023-04-12T22:41:06.449Z,0.70
2023-04-12T22:43:34.296Z,1.33
2023-04-12T22:46:05.711Z,0.90
2023-04-12T22:48:32.800Z,1.27
2023-04-12T22:51:03.543Z,0.90
2023-04-12T22:53:33.252Z,1.80
2023-04-12T22:56:00.269Z,1.00
2023-04-12T22:58:27.469Z,3.00
2023-04-12T23:00:55.281Z,2.00
2023-04-12T23:03:22.602Z,2.60
2023-04-12T23:05:50.396Z,2.03
2023-04-12T23:08:17.846Z,1.37
2023-04-12T23:10:45.428Z,0.90
2023-04-12T23:13:12.494Z,1.50
2023-04-12T23:15:42.717Z,3.53
2023-04-12T23:18:10.494Z,1.80
2023-04-12T23:20:44.692Z,1.37
2023-04-12T23:23:11.730Z,1.37
2023-04-12T23:25:39.490Z,2.07
2023-04-12T23:28:12.593Z,2.07
2023-04-12T23:30:42.143Z,2.23
2023-04-12T23:33:09.444Z,1.60
2023-04-12T23:35:38.193Z,1.37
2023-04-12T23:38:05.693Z,2.00
2023-04-12T23:40:33.097Z,1.60
2023-04-12T23:43:00.126Z,1.33
2023-04-12T23:45:27.356Z,2.53
2023-04-12T23:47:54.659Z,2.47
2023-04-12T23:50:21.692Z,1.33
2023-04-12T23:52:48.713Z,1.10
2023-04-12T23:55:15.781Z,1.93
2023-04-12T23:57:42.870Z,1.57
